Thunder radar more information blitzortung!


Radar de pluja more information rain snow radar


Visita la nostra xarxa de llocs de meteo:

Template documentation
and downloads

And another site



No particular awareness of the weather is required.    There are no Weather-warnings

Pagina Historial Weather Underground text

Diari Resum February 7, 2018 Unitats:  Mètric    Imperial   Tant
« Previous Dia
SegĂźent Dia »
Diari Setmana Mensual Anual Personalitzada
  Maxima: Minima: Media:
Temperatura: -17.8 °C -17.3 °C -14.4 °C
Punt de rosada: -17.8 °C -21.7 °C -19.5 °C
Humitat: Humidity % 42 % 52 %
Wind Speed: 0 km/h 0 km/h 7.6 km/h
RĂ fegues de vent: 0 km/h - -
Vent:- - SSW
Pression baro: 0 hPa 34063.2 hPa -
Precipitacions: 0 mm    
Historical Graphs
 
 
Dades de taula per February 7, 2018
Temps Temperatura Punt de rosada Pression baro Vent Wind Speed RĂ fegues de vent Humitat Rainfall Rate (Hourly)
-17.8 °C -17.8 °C 0 hPa Calm     Humidity % 0 mm
00:03 -15.1 °C -18 °C 34097 hPa SE 9 km/h 9 km/h 69 % 0 mm
00:08 -15.1 °C -18 °C 34097 hPa SE 6 km/h 6 km/h 69 % 0 mm
00:13 -15.2 °C -18.1 °C 34097 hPa NW 3.1 km/h 3.1 km/h 69 % 0 mm
00:18 -15.2 °C -18.1 °C 34097 hPa WNW 5.6 km/h   69 % 0 mm
00:23 -15.2 °C -18.1 °C 34097 hPa West 8.5 km/h 8.5 km/h 69 % 0 mm
00:28 -15.2 °C -18.1 °C 34063.2 hPa West 9 km/h 9 km/h 69 % 0 mm
00:33 -15.2 °C -18.1 °C 34063.2 hPa West 6 km/h 6 km/h 69 % 0 mm
00:38 -15.2 °C -18.1 °C 34063.2 hPa Calm     69 % 0 mm
00:43 -15.2 °C -18.1 °C 34097 hPa West 3.1 km/h 3.1 km/h 69 % 0 mm
00:48 -15.2 °C -18.1 °C 34097 hPa West 9.3 km/h 9.3 km/h 69 % 0 mm
00:53 -15.2 °C -18.1 °C 34097 hPa West 6 km/h 6 km/h 69 % 0 mm
00:58 -15.2 °C -18.2 °C 34063.2 hPa NNW 6 km/h 6 km/h 68 % 0 mm
02:25 -17.3 °C -20.4 °C 34198.6 hPa Calm     66 % 0 mm
02:35 -17.2 °C -20.2 °C 34198.6 hPa West 2.6 km/h 2.6 km/h 67 % 0 mm
02:45 -16.9 °C -19.9 °C 34198.6 hPa Calm     67 % 0 mm
02:55 -16.6 °C -19.7 °C 34198.6 hPa WNW 2.6 km/h 5.1 km/h 67 % 0 mm
03:05 -16.5 °C -19.8 °C 34198.6 hPa NNE 2.6 km/h 5.1 km/h 65 % 0 mm
03:15 -16.3 °C -19.7 °C 34198.6 hPa NE 5.1 km/h 5.1 km/h 64 % 0 mm
03:25 -16.1 °C -19.5 °C 34198.6 hPa Calm   5.1 km/h 64 % 0 mm
03:35 -16.1 °C -19.7 °C 34198.6 hPa ENE 5.1 km/h 7.7 km/h 63 % 0 mm
03:45 -16.1 °C -19.7 °C 34198.6 hPa NE 5.1 km/h 7.7 km/h 62 % 0 mm
03:55 -16.1 °C -19.8 °C 34222.3 hPa ENE 7.7 km/h 7.7 km/h 61 % 0 mm
04:05 -15.8 °C -19.5 °C 34222.3 hPa ENE 5.1 km/h 7.7 km/h 62 % 0 mm
04:15 -15.7 °C -19.5 °C 34222.3 hPa ENE 5.1 km/h 7.7 km/h 61 % 0 mm
04:25 -15.4 °C -19.2 °C 34222.3 hPa East 5.1 km/h 5.1 km/h 61 % 0 mm
04:35 -15.1 °C -18.9 °C 34256.2 hPa ENE 7.7 km/h 7.7 km/h 61 % 0 mm
10:38 -15.3 °C -19.2 °C 34256.2 hPa NE 6.3 km/h 6.3 km/h 60 % 0 mm
10:43 -15.1 °C -19.1 °C 34256.2 hPa ESE 6 km/h 6 km/h 60 % 0 mm
10:48 -14.9 °C -18.8 °C 34256.2 hPa West 6.3 km/h 6.3 km/h 60 % 0 mm
10:53 -14.8 °C -18.6 °C 34256.2 hPa NW 6 km/h 6 km/h 61 % 0 mm
10:58 -14.8 °C -18.9 °C 34256.2 hPa ENE 6 km/h 6 km/h 59 % 0 mm
11:03 -14.8 °C -18.9 °C 34256.2 hPa ENE 6 km/h 6 km/h 59 % 0 mm
11:08 -14.8 °C -18.8 °C 34256.2 hPa WNW 9 km/h 9 km/h 60 % 0 mm
11:13 -14.7 °C -18.8 °C 34256.2 hPa ENE 6 km/h 6 km/h 59 % 0 mm
11:18 -14.7 °C -18.9 °C 34256.2 hPa NE 6.3 km/h 6.3 km/h 58 % 0 mm
11:23 -14.7 °C -18.8 °C 34256.2 hPa NNE 11.9 km/h 11.9 km/h 59 % 0 mm
11:28 -14.6 °C -18.8 °C 34256.2 hPa NE 5.1 km/h 5.1 km/h 58 % 0 mm
11:33 -14.5 °C -18.7 °C 34256.2 hPa NE 9 km/h 9 km/h 58 % 0 mm
11:38 -14.3 °C -18.6 °C 34256.2 hPa NNE 6 km/h 6 km/h 58 % 0 mm
11:43 -14.3 °C -18.6 °C 34256.2 hPa ENE 6.8 km/h 6.8 km/h 58 % 0 mm
11:48 -14.4 °C -18.9 °C 34256.2 hPa NE 11.9 km/h 11.9 km/h 56 % 0 mm
11:53 -14.2 °C -18.6 °C 34256.2 hPa NE 11.9 km/h 11.9 km/h 57 % 0 mm
11:58 -14.2 °C -18.6 °C 34256.2 hPa NNE 6 km/h 6.3 km/h 57 % 0 mm
12:03 -14.1 °C -18.4 °C 34256.2 hPa NNE 9.8 km/h 9.8 km/h 57 % 0 mm
12:08 -14.1 °C -18.6 °C 34256.2 hPa NE 9 km/h 9 km/h 56 % 0 mm
12:13 -14 °C -18.6 °C 34256.2 hPa ENE 6.3 km/h   56 % 0 mm
12:18 -13.8 °C -18.5 °C 34256.2 hPa ENE 6.3 km/h 6.3 km/h 55 % 0 mm
12:23 -13.7 °C -18.3 °C 34256.2 hPa North 6 km/h 6 km/h 56 % 0 mm
12:28 -13.7 °C -18.4 °C 34256.2 hPa NW 6.8 km/h 6.8 km/h 55 % 0 mm
12:33 -13.6 °C -18.3 °C 34256.2 hPa WSW 6 km/h 6 km/h 55 % 0 mm
12:38 -13.4 °C -17.9 °C 34256.2 hPa SW 9.8 km/h 9.8 km/h 56 % 0 mm
12:43 -13.2 °C -17.9 °C 34256.2 hPa ESE 10.3 km/h 10.3 km/h 55 % 0 mm
12:48 -13.2 °C -18.1 °C 34256.2 hPa SSE 9 km/h 9 km/h 54 % 0 mm
12:53 -13.2 °C -17.9 °C 34256.2 hPa SW 6 km/h 6 km/h 55 % 0 mm
12:58 -13.3 °C -18.2 °C 34256.2 hPa NE 11.9 km/h 11.9 km/h 54 % 0 mm
13:03 -13.2 °C -18.2 °C 34256.2 hPa ENE 7.6 km/h 7.6 km/h 53 % 0 mm
13:08 -12.9 °C -17.9 °C 34256.2 hPa SSE 6.8 km/h 6.8 km/h 53 % 0 mm
13:13 -13 °C -18 °C 34256.2 hPa ENE 9 km/h 9 km/h 53 % 0 mm
13:18 -12.9 °C -17.9 °C 34256.2 hPa WSW 3.1 km/h 3.7 km/h 53 % 0 mm
13:23 -12.5 °C -17.4 °C 34256.2 hPa SW 11.1 km/h 11.1 km/h 54 % 0 mm
13:28 -12.6 °C -17.6 °C 34256.2 hPa WSW 16.1 km/h 16.1 km/h 54 % 0 mm
13:33 -12.7 °C -17.7 °C 34256.2 hPa West 11.9 km/h 11.9 km/h 53 % 0 mm
13:38 -12.6 °C -17.8 °C 34256.2 hPa WSW 17.9 km/h 17.9 km/h 52 % 0 mm
13:43 -12.6 °C -17.6 °C 34256.2 hPa WSW 15 km/h 15 km/h 53 % 0 mm
13:48 -12.6 °C -17.8 °C 34256.2 hPa WSW 9 km/h 9 km/h 52 % 0 mm
13:53 -12.6 °C -17.8 °C 34256.2 hPa SW 15 km/h 15 km/h 52 % 0 mm
13:58 -12.4 °C -17.8 °C 34256.2 hPa SW 11.9 km/h 11.9 km/h 51 % 0 mm
14:03 -12.4 °C -17.6 °C 34256.2 hPa SSW 15 km/h 15 km/h 52 % 0 mm
14:08 -12.4 °C -17.8 °C 34256.2 hPa WNW 15 km/h 15 km/h 51 % 0 mm
14:13 -12.6 °C -17.9 °C 34222.3 hPa SW 20.9 km/h 20.9 km/h 51 % 0 mm
14:18 -12.6 °C -17.9 °C 34222.3 hPa WSW 11.9 km/h 11.9 km/h 51 % 0 mm
14:23 -12.7 °C -18 °C 34222.3 hPa WSW 17.9 km/h 17.9 km/h 51 % 0 mm
14:28 -12.7 °C -18 °C 34256.2 hPa WNW 15 km/h 15 km/h 51 % 0 mm
14:33 -12.6 °C -17.9 °C 34256.2 hPa West 15 km/h 15 km/h 51 % 0 mm
14:38 -12.5 °C -17.9 °C 34256.2 hPa WNW 6 km/h 6 km/h 51 % 0 mm
14:43 -12.5 °C -17.9 °C 34256.2 hPa NNW 11.9 km/h 11.9 km/h 51 % 0 mm
14:48 -12.4 °C -17.8 °C 34256.2 hPa SW 9 km/h 9.3 km/h 51 % 0 mm
14:53 -12.3 °C -17.7 °C 34256.2 hPa SW 7.6 km/h 7.6 km/h 51 % 0 mm
14:58 -12.2 °C -17.6 °C 34256.2 hPa WSW 11.9 km/h 11.9 km/h 51 % 0 mm
15:03 -12.3 °C -17.7 °C 34256.2 hPa West 17.9 km/h 17.9 km/h 51 % 0 mm
15:08 -12.3 °C -17.8 °C 34256.2 hPa SSW 9 km/h 9 km/h 50 % 0 mm
15:13 -12.2 °C -17.7 °C 34256.2 hPa WNW 11.9 km/h 11.9 km/h 50 % 0 mm
15:18 -12.1 °C -17.7 °C 34256.2 hPa WSW 11.9 km/h 11.9 km/h 50 % 0 mm
15:23 -12.2 °C -17.9 °C 34256.2 hPa West 11.9 km/h 11.9 km/h 49 % 0 mm
15:28 -12.2 °C -17.9 °C 34256.2 hPa WNW 17.9 km/h 17.9 km/h 49 % 0 mm
15:33 -12.2 °C -18 °C 34256.2 hPa WNW 23.8 km/h 23.8 km/h 48 % 0 mm
15:38 -12.2 °C -18.1 °C 34256.2 hPa NW 15 km/h 15 km/h 48 % 0 mm
15:43 -12.2 °C -18 °C 34256.2 hPa WNW 10.3 km/h 10.3 km/h 48 % 0 mm
15:48 -12.4 °C -18.6 °C 34256.2 hPa West 26.9 km/h 26.9 km/h 46 % 0 mm
15:53 -12.4 °C -18.6 °C 34256.2 hPa West 16.1 km/h 16.1 km/h 46 % 0 mm
15:58 -12.4 °C -18.6 °C 34256.2 hPa WSW 9 km/h 9 km/h 46 % 0 mm
16:03 -12.3 °C -18.3 °C 34256.2 hPa SW 12.2 km/h 12.2 km/h 47 % 0 mm
16:08 -12.3 °C -18.5 °C 34256.2 hPa WNW 15 km/h 15 km/h 46 % 0 mm
16:13 -12.3 °C -18.3 °C 34256.2 hPa WSW 16.1 km/h 16.1 km/h 47 % 0 mm
16:18 -12.4 °C -18.6 °C 34256.2 hPa WNW 20.9 km/h 20.9 km/h 46 % 0 mm
16:23 -12.4 °C -18.8 °C 34256.2 hPa WSW 15 km/h 15 km/h 45 % 0 mm
16:28 -12.5 °C -18.8 °C 34222.3 hPa West 9 km/h 9 km/h 45 % 0 mm
16:33 -12.5 °C -18.8 °C 34222.3 hPa NW 11.1 km/h 11.1 km/h 45 % 0 mm
16:38 -12.5 °C -18.8 °C 34222.3 hPa West 15 km/h 15 km/h 45 % 0 mm
16:43 -12.6 °C -18.8 °C 34256.2 hPa WSW 19.2 km/h 19.2 km/h 45 % 0 mm
16:48 -12.6 °C -18.8 °C 34256.2 hPa West 17.9 km/h 17.9 km/h 45 % 0 mm
16:53 -12.6 °C -18.8 °C 34256.2 hPa WNW 10.3 km/h 10.3 km/h 45 % 0 mm
16:58 -12.6 °C -19.1 °C 34256.2 hPa West 17.9 km/h 17.9 km/h 44 % 0 mm
17:03 -12.6 °C -19.1 °C 34256.2 hPa WNW 9 km/h 9 km/h 44 % 0 mm
17:08 -12.7 °C -19.1 °C 34256.2 hPa WSW 11.9 km/h 11.9 km/h 44 % 0 mm
17:13 -12.7 °C -19.2 °C 34256.2 hPa South 20.9 km/h 20.9 km/h 44 % 0 mm
17:18 -12.7 °C -19.2 °C 34256.2 hPa WSW 6 km/h 6 km/h 44 % 0 mm
17:23 -12.8 °C -19.4 °C 34256.2 hPa WSW 26.9 km/h 26.9 km/h 43 % 0 mm
17:28 -12.9 °C -19.6 °C 34256.2 hPa West 15 km/h 15 km/h 43 % 0 mm
17:33 -13.1 °C -19.7 °C 34256.2 hPa NW 15 km/h 15 km/h 43 % 0 mm
17:38 -13.1 °C -19.7 °C 34256.2 hPa West 15 km/h 15 km/h 43 % 0 mm
17:43 -13.2 °C -19.9 °C 34256.2 hPa SW 11.9 km/h 11.9 km/h 42 % 0 mm
17:48 -13.3 °C -19.8 °C 34256.2 hPa West 9.8 km/h 9.8 km/h 43 % 0 mm
17:53 -13.4 °C -19.9 °C 34256.2 hPa West 9 km/h 9 km/h 43 % 0 mm
17:58 -13.5 °C -20.1 °C 34293.4 hPa WSW 9 km/h 9 km/h 43 % 0 mm
18:03 -13.7 °C -20.1 °C 34293.4 hPa WSW 11.9 km/h 11.9 km/h 44 % 0 mm
18:08 -13.7 °C -20.1 °C 34293.4 hPa WSW 9 km/h 9 km/h 44 % 0 mm
18:13 -13.8 °C -20.2 °C 34293.4 hPa WNW 6 km/h 6 km/h 44 % 0 mm
18:18 -13.9 °C -20.3 °C 34293.4 hPa Calm     44 % 0 mm
18:23 -14 °C -20.3 °C 34293.4 hPa WSW 3.1 km/h   44 % 0 mm
18:28 -14.1 °C -20.3 °C 34293.4 hPa WSW 3.7 km/h   45 % 0 mm
18:33 -14.2 °C -20.4 °C 34293.4 hPa WSW 3.1 km/h   45 % 0 mm
18:38 -14.3 °C -20.5 °C 34293.4 hPa WSW 3.7 km/h 3.7 km/h 45 % 0 mm
18:43 -14.4 °C -20.5 °C 34327.3 hPa WSW 6 km/h 6 km/h 45 % 0 mm
18:48 -14.4 °C -20.6 °C 34327.3 hPa WSW 4.2 km/h   45 % 0 mm
18:53 -14.4 °C -20.4 °C 34327.3 hPa WSW 3.7 km/h 3.7 km/h 46 % 0 mm
18:58 -14.5 °C -20.4 °C 34327.3 hPa WSW 6 km/h 6 km/h 46 % 0 mm
19:03 -14.6 °C -20.5 °C 34327.3 hPa WSW 6 km/h 6 km/h 46 % 0 mm
19:08 -14.7 °C -20.6 °C 34327.3 hPa Calm     46 % 0 mm
19:13 -14.8 °C -20.8 °C 34293.4 hPa WSW 3.1 km/h   46 % 0 mm
19:18 -15 °C -20.9 °C 34293.4 hPa SW 6 km/h 6 km/h 46 % 0 mm
19:23 -15.1 °C -21.1 °C 34293.4 hPa WSW 6 km/h 6 km/h 46 % 0 mm
19:28 -15.1 °C -21.1 °C 34327.3 hPa WSW 5.1 km/h 5.1 km/h 46 % 0 mm
19:33 -15.1 °C -21.1 °C 34327.3 hPa WSW 6 km/h 6 km/h 46 % 0 mm
19:38 -15.2 °C -21.1 °C 34327.3 hPa Calm     46 % 0 mm
19:43 -15.2 °C -21 °C 34293.4 hPa WSW 3.1 km/h 3.1 km/h 47 % 0 mm
19:48 -15.2 °C -21 °C 34293.4 hPa Calm     47 % 0 mm
19:53 -15.3 °C -21 °C 34293.4 hPa Calm     47 % 0 mm
19:58 -15.3 °C -21 °C 34293.4 hPa Calm     47 % 0 mm
20:03 -15.3 °C -21 °C 34293.4 hPa SW 3.1 km/h 3.1 km/h 47 % 0 mm
20:08 -15.3 °C -21 °C 34293.4 hPa SW 3.1 km/h   47 % 0 mm
20:13 -15.3 °C -21.1 °C 34327.3 hPa Calm     47 % 0 mm
20:18 -15.4 °C -21.2 °C 34327.3 hPa Calm     47 % 0 mm
20:23 -15.4 °C -21.2 °C 34327.3 hPa Calm     47 % 0 mm
20:28 -15.4 °C -21 °C 34327.3 hPa SW 3.1 km/h 3.1 km/h 48 % 0 mm
20:33 -15.5 °C -21.2 °C 34327.3 hPa Calm     47 % 0 mm
20:38 -15.4 °C -21.2 °C 34327.3 hPa Calm     47 % 0 mm
20:43 -15.4 °C -21.2 °C 34327.3 hPa Calm     47 % 0 mm
20:48 -15.4 °C -21.2 °C 34327.3 hPa Calm     47 % 0 mm
20:53 -15.4 °C -21.2 °C 34327.3 hPa Calm     47 % 0 mm
20:58 -15.4 °C -21.3 °C 34327.3 hPa Calm     46 % 0 mm
21:03 -15.4 °C -21.3 °C 34327.3 hPa ESE 6.8 km/h 6.8 km/h 46 % 0 mm
21:08 -15.7 °C -21.4 °C 34327.3 hPa ENE 9 km/h 9 km/h 47 % 0 mm
21:13 -15.8 °C -21.3 °C 34327.3 hPa ENE 4.2 km/h 4.2 km/h 48 % 0 mm
21:18 -15.8 °C -21.3 °C 34327.3 hPa NE 4.2 km/h   48 % 0 mm
21:23 -15.8 °C -21.4 °C 34327.3 hPa Calm     48 % 0 mm
21:28 -15.9 °C -21.3 °C 34327.3 hPa WNW 3.1 km/h 4.2 km/h 49 % 0 mm
21:33 -16.1 °C -21.5 °C 34327.3 hPa WSW 6 km/h 6 km/h 49 % 0 mm
21:39 -16.2 °C -21.4 °C 34327.3 hPa WSW 6 km/h 6 km/h 50 % 0 mm
21:44 -16.3 °C -21.5 °C 34327.3 hPa Calm     50 % 0 mm
21:49 -16.3 °C -21.6 °C 34327.3 hPa Calm     50 % 0 mm
21:54 -16.4 °C -21.4 °C 34327.3 hPa Calm     51 % 0 mm
21:59 -16.4 °C -21.4 °C 34361.1 hPa NNE 4.2 km/h 4.2 km/h 51 % 0 mm
22:04 -16.3 °C -21.3 °C 34361.1 hPa NNE 6 km/h 6 km/h 51 % 0 mm
22:09 -16.3 °C -21.4 °C 34361.1 hPa NNE 3.1 km/h 3.1 km/h 51 % 0 mm
22:14 -16.4 °C -21.4 °C 34361.1 hPa NNW 5.1 km/h 5.1 km/h 51 % 0 mm
22:19 -16.4 °C -21.5 °C 34361.1 hPa Calm     51 % 0 mm
22:24 -16.4 °C -21.4 °C 34361.1 hPa WSW 6.3 km/h 6.3 km/h 51 % 0 mm
22:29 -16.6 °C -21.6 °C 34361.1 hPa WSW 6.3 km/h 6.3 km/h 51 % 0 mm
22:34 -16.6 °C -21.7 °C 34361.1 hPa WSW 6.8 km/h 6.8 km/h 51 % 0 mm
22:39 -16.6 °C -21.6 °C 34361.1 hPa SW 6.8 km/h 6.8 km/h 51 % 0 mm
22:44 -16.4 °C -21.4 °C 34361.1 hPa WSW 6.3 km/h 6.3 km/h 51 % 0 mm
22:49 -16.2 °C -21.3 °C 34361.1 hPa WSW 9 km/h 9 km/h 51 % 0 mm
22:54 -16.1 °C -21.2 °C 34361.1 hPa WNW 3.7 km/h   51 % 0 mm
22:59 -16.1 °C -21.2 °C 34395 hPa WNW 6 km/h 6 km/h 51 % 0 mm
23:04 -16 °C -21.1 °C 34395 hPa West 6 km/h 6 km/h 51 % 0 mm
23:09 -15.9 °C -21.1 °C 34395 hPa WNW 3.1 km/h   51 % 0 mm
23:14 -16 °C -21.1 °C 34361.1 hPa WNW 3.1 km/h   51 % 0 mm
23:19 -16.1 °C -21.2 °C 34361.1 hPa West 3.1 km/h 3.1 km/h 51 % 0 mm
23:24 -16.1 °C -21.2 °C 34361.1 hPa West 5.1 km/h 5.1 km/h 51 % 0 mm
23:29 -16.1 °C -21.2 °C 34361.1 hPa WSW 3.1 km/h 3.1 km/h 51 % 0 mm
23:34 -16.2 °C -21.3 °C 34361.1 hPa West 3.1 km/h 3.1 km/h 51 % 0 mm
23:39 -16.1 °C -21.2 °C 34361.1 hPa WSW 6.3 km/h 6.3 km/h 51 % 0 mm
23:44 -16.1 °C -21.2 °C 34395 hPa WSW 6 km/h 6 km/h 51 % 0 mm
23:49 -16.1 °C -21.2 °C 34395 hPa West 6 km/h 6.3 km/h 51 % 0 mm
23:54 -16.1 °C -21.3 °C 34395 hPa WNW 6 km/h   50 % 0 mm
23:56 -16.1 °C -21.3 °C 34395 hPa West 6 km/h   50 % 0 mm
Meteo Sesrovires
Elogis d' Weather Underground - 2 mb

Guio original per  Jim McMurry - jmcmurry@mwt.net Adaptat per a la plantilla per  Wim van der Kuil - Leuven-Template.eu

Trobareu la nostra informacio del temps tambe a:

Weather Underground

AWEKAS